Time;durP1;ratioP1;P1;durP2;ratioP2;P2;SDS_P1;SDS_P2;PMS_P1;PMS_P2;Temp;Humidity;BMP_temperature;BMP_pressure;BME280_temperature;BME280_humidity;BME280_pressure;Samples;Min_cycle;Max_cycle;Signal;HPM_P1;HPM_P2
2022/11/21 00:01:37;;;;;;;14.90;8.40;;;;;;;-0.21;88.50;99786.59;5092638;28;20036;-85
2022/11/21 00:04:06;;;;;;;14.85;8.07;;;;;;;-0.22;88.97;99789.09;5090727;28;20111;-88
2022/11/21 00:06:33;;;;;;;13.38;8.23;;;;;;;-0.20;88.34;99779.72;5089385;28;20060;-90
2022/11/21 00:09:01;;;;;;;13.82;7.25;;;;;;;-0.18;89.12;99786.63;5100655;28;20036;-83
2022/11/21 00:11:27;;;;;;;14.27;7.18;;;;;;;-0.19;88.53;99784.03;5097380;28;20044;-82
2022/11/21 00:13:54;;;;;;;16.02;8.23;;;;;;;-0.20;88.67;99784.88;5092298;28;20045;-85
2022/11/21 00:16:24;;;;;;;10.82;7.90;;;;;;;-0.22;89.02;99786.53;5096988;28;20055;-84
2022/11/21 00:18:51;;;;;;;14.48;7.97;;;;;;;-0.22;89.13;99783.94;5096776;28;20101;-84
2022/11/21 00:21:20;;;;;;;13.93;6.93;;;;;;;-0.21;89.21;99777.97;5091156;28;20138;-84
2022/11/21 00:23:47;;;;;;;9.23;7.20;;;;;;;-0.21;88.40;99781.44;5093234;28;20062;-82
2022/11/21 00:26:16;;;;;;;13.73;8.23;;;;;;;-0.21;88.80;99770.25;5110931;28;20417;-82
2022/11/21 00:28:45;;;;;;;12.68;7.25;;;;;;;-0.21;88.44;99772.84;5095018;28;20469;-83
2022/11/21 00:31:24;;;;;;;11.77;7.25;;;;;;;-0.22;88.68;99771.97;5105558;28;20074;-83
2022/11/21 00:33:51;;;;;;;13.02;7.22;;;;;;;-0.22;88.66;99764.25;5093896;28;20044;-86
2022/11/21 00:36:19;;;;;;;14.38;7.75;;;;;;;-0.20;88.67;99774.56;5080224;28;20051;-83
2022/11/21 00:38:45;;;;;;;16.00;9.45;;;;;;;-0.21;88.43;99777.97;5091778;28;20499;-84
2022/11/21 00:41:12;;;;;;;11.15;7.63;;;;;;;-0.22;88.21;99778.81;5097435;28;20048;-82
2022/11/21 00:43:39;;;;;;;12.70;7.53;;;;;;;-0.24;87.95;99776.22;5094905;28;20024;-85
2022/11/21 00:46:05;;;;;;;12.40;7.72;;;;;;;-0.22;87.64;99776.22;5092889;28;20465;-82
2022/11/21 00:48:32;;;;;;;13.43;7.13;;;;;;;-0.22;88.61;99763.38;5102613;28;20050;-82
2022/11/21 00:51:02;;;;;;;23.70;11.95;;;;;;;-0.19;88.10;99769.47;5085491;28;20129;-82
2022/11/21 00:53:30;;;;;;;13.30;8.38;;;;;;;-0.17;88.07;99766.91;5073958;28;20047;-84
2022/11/21 00:55:57;;;;;;;11.55;6.97;;;;;;;-0.14;88.67;99776.41;5100841;28;20036;-82
2022/11/21 00:58:24;;;;;;;12.05;7.30;;;;;;;-0.14;88.52;99766.09;5079643;28;20098;-83
2022/11/21 01:00:50;;;;;;;14.32;6.93;;;;;;;-0.13;88.43;99768.72;5104925;27;20040;-86
2022/11/21 01:03:17;;;;;;;10.55;7.30;;;;;;;-0.12;88.37;99765.28;5109444;27;20044;-82
2022/11/21 01:05:44;;;;;;;11.02;7.20;;;;;;;-0.12;88.48;99767.88;5109357;27;20051;-84
2022/11/21 01:08:10;;;;;;;10.05;6.50;;;;;;;-0.13;88.61;99768.72;5108570;27;20558;-84
2022/11/21 01:10:37;;;;;;;13.82;7.40;;;;;;;-0.10;88.51;99771.34;5094845;28;20040;-86
2022/11/21 01:13:04;;;;;;;12.25;7.53;;;;;;;-0.10;88.81;99768.78;5111549;28;20115;-84
2022/11/21 01:15:30;;;;;;;10.75;6.55;;;;;;;-0.10;88.59;99768.78;5082394;28;20063;-82
2022/11/21 01:17:57;;;;;;;10.43;5.90;;;;;;;-0.11;87.67;99756.75;5091913;28;20116;-85
2022/11/21 01:20:23;;;;;;;10.98;7.15;;;;;;;-0.13;87.90;99752.41;5100163;28;20048;-82
2022/11/21 01:22:50;;;;;;;8.93;5.72;;;;;;;-0.14;88.27;99750.66;5093727;28;20048;-82
2022/11/21 01:25:17;;;;;;;11.05;5.55;;;;;;;-0.13;88.04;99750.72;5087709;28;20036;-85
2022/11/21 01:27:43;;;;;;;8.88;6.22;;;;;;;-0.14;87.97;99753.25;5103035;27;20036;-82
2022/11/21 01:30:11;;;;;;;11.02;7.85;;;;;;;-0.17;87.99;99754.94;5102198;28;20109;-82
2022/11/21 01:32:38;;;;;;;13.23;6.47;;;;;;;-0.19;88.28;99748.88;5101026;28;20048;-83
2022/11/21 01:35:05;;;;;;;12.00;6.78;;;;;;;-0.19;88.37;99750.59;5077881;28;20052;-87
2022/11/21 01:37:32;;;;;;;13.68;6.97;;;;;;;-0.19;88.53;99756.59;5099067;28;20051;-84
2022/11/21 01:39:58;;;;;;;10.32;6.00;;;;;;;-0.20;88.49;99754.00;5096722;28;20063;-85
2022/11/21 01:42:25;;;;;;;12.30;7.25;;;;;;;-0.18;88.97;99754.91;5091064;28;20404;-83
2022/11/21 01:44:53;;;;;;;15.65;7.80;;;;;;;-0.19;88.62;99756.59;5103721;28;20037;-89
2022/11/21 01:47:21;;;;;;;13.30;7.63;;;;;;;-0.25;88.24;99746.22;5096579;28;20047;-83
2022/11/21 01:49:48;;;;;;;8.85;5.75;;;;;;;-0.25;88.56;99750.47;5094422;28;20048;-84
2022/11/21 01:52:24;;;;;;;12.65;6.95;;;;;;;-0.26;89.27;99756.44;5089871;28;20044;-84
2022/11/21 01:55:04;;;;;;;12.52;7.38;;;;;;;-0.30;89.44;99758.09;5116073;27;20036;-84
2022/11/21 01:57:41;;;;;;;11.90;7.88;;;;;;;-0.36;88.86;99757.97;5087254;28;20052;-85
2022/11/21 02:00:12;;;;;;;14.60;7.50;;;;;;;-0.44;89.03;99760.38;5089591;28;20063;-85
2022/11/21 02:02:45;;;;;;;11.23;7.50;;;;;;;-0.48;89.64;99766.28;5074751;28;20844;-83
2022/11/21 02:05:18;;;;;;;14.13;7.25;;;;;;;-0.59;89.88;99757.47;5077502;28;20086;-84
2022/11/21 02:07:48;;;;;;;9.98;7.32;;;;;;;-0.82;90.69;99760.41;5095805;28;20058;-82
2022/11/21 02:10:16;;;;;;;7.63;5.85;;;;;;;-1.02;91.76;99759.94;5094584;28;20118;-84
2022/11/21 02:12:49;;;;;;;14.38;7.70;;;;;;;-1.21;92.94;99767.22;5103437;28;20078;-84
2022/11/21 02:15:18;;;;;;;13.85;8.23;;;;;;;-1.36;94.37;99766.81;5097850;28;20650;-84
2022/11/21 02:17:45;;;;;;;10.77;7.07;;;;;;;-1.46;95.75;99760.59;5099814;28;20463;-86
2022/11/21 02:20:24;;;;;;;13.05;7.38;;;;;;;-1.57;95.88;99772.28;5084294;28;20815;-86
2022/11/21 02:23:09;;;;;;;15.57;9.02;;;;;;;-1.62;97.51;99779.00;5115429;27;20101;-86
2022/11/21 02:25:40;;;;;;;12.90;8.32;;;;;;;-1.74;99.37;99788.09;5087571;28;20040;-85
2022/11/21 02:28:12;;;;;;;12.30;8.75;;;;;;;-1.80;100.00;99790.50;5095787;28;20375;-82
2022/11/21 02:30:43;;;;;;;16.80;9.88;;;;;;;-1.83;100.00;99790.41;5115090;27;20080;-82
2022/11/21 02:33:11;;;;;;;16.52;9.93;;;;;;;-1.90;100.00;99788.53;5120503;27;20531;-82
2022/11/21 02:35:39;;;;;;;16.30;9.82;;;;;;;-1.93;100.00;99780.72;5094010;28;20055;-81
2022/11/21 02:38:15;;;;;;;17.65;9.95;;;;;;;-1.98;100.00;99784.88;5079971;28;20048;-82
2022/11/21 02:40:49;;;;;;;17.88;9.77;;;;;;;-2.07;100.00;99788.94;5098684;28;20098;-84
2022/11/21 02:43:33;;;;;;;17.23;9.93;;;;;;;-2.14;100.00;99784.44;5075350;28;20485;-83
2022/11/21 02:46:00;;;;;;;19.25;10.65;;;;;;;-2.23;100.00;99795.31;5107269;27;20036;-82
2022/11/21 02:48:30;;;;;;;17.70;10.90;;;;;;;-2.23;100.00;99795.31;5074686;28;20044;-84
2022/11/21 02:50:59;;;;;;;13.35;9.73;;;;;;;-2.29;100.00;99787.44;5108642;28;20135;-84
2022/11/21 02:53:27;;;;;;;16.17;10.60;;;;;;;-2.33;100.00;99803.56;5078192;28;20590;-83
2022/11/21 02:55:54;;;;;;;17.83;10.88;;;;;;;-2.39;100.00;99803.38;5105470;28;20059;-84
2022/11/21 02:58:21;;;;;;;17.38;11.90;;;;;;;-2.43;100.00;99796.44;5108219;28;20505;-83
2022/11/21 03:00:48;;;;;;;19.10;10.98;;;;;;;-2.46;100.00;99797.19;5108601;28;20395;-83
2022/11/21 03:03:14;;;;;;;22.33;12.00;;;;;;;-2.49;100.00;99794.53;5106085;28;20036;-83
2022/11/21 03:05:43;;;;;;;19.95;12.77;;;;;;;-2.57;100.00;99799.44;5092343;28;20041;-85
2022/11/21 03:08:13;;;;;;;23.10;12.75;;;;;;;-2.56;100.00;99803.72;5098375;28;20043;-83
2022/11/21 03:10:40;;;;;;;21.05;12.50;;;;;;;-2.56;100.00;99797.75;5113598;27;20028;-85
2022/11/21 03:13:06;;;;;;;28.98;15.52;;;;;;;-2.60;100.00;99803.59;5076901;28;20340;-82
2022/11/21 03:15:35;;;;;;;23.30;14.15;;;;;;;-2.67;100.00;99803.41;5072909;28;20040;-83
2022/11/21 03:18:03;;;;;;;25.70;14.30;;;;;;;-2.70;100.00;99817.81;5105466;28;20044;-84
2022/11/21 03:20:32;;;;;;;24.17;14.07;;;;;;;-2.75;100.00;99809.13;5072651;28;20064;-83
2022/11/21 03:22:59;;;;;;;27.50;14.80;;;;;;;-2.77;100.00;99818.47;5096743;28;20393;-83
2022/11/21 03:25:25;;;;;;;25.88;14.75;;;;;;;-2.80;100.00;99815.78;5073326;28;20105;-87
2022/11/21 03:27:54;;;;;;;25.52;13.95;;;;;;;-2.85;100.00;99808.84;5100589;28;20071;-83
2022/11/21 03:30:23;;;;;;;23.67;14.65;;;;;;;-2.88;100.00;99812.97;5104679;28;20048;-85
2022/11/21 03:32:50;;;;;;;24.38;14.48;;;;;;;-2.92;100.00;99806.91;5094377;28;20040;-84
2022/11/21 03:35:17;;;;;;;28.45;14.80;;;;;;;-2.91;100.00;99813.75;5096915;28;20070;-83
2022/11/21 03:37:44;;;;;;;23.42;14.18;;;;;;;-2.93;100.00;99814.53;5078208;28;20102;-83
2022/11/21 03:40:11;;;;;;;26.13;13.55;;;;;;;-2.99;100.00;99815.22;5091182;28;20658;-85
2022/11/21 03:42:38;;;;;;;21.67;11.93;;;;;;;-3.03;100.00;99816.78;5095206;28;20048;-84
2022/11/21 03:45:05;;;;;;;19.27;13.65;;;;;;;-3.05;100.00;99821.00;5079368;28;20074;-87
2022/11/21 03:47:32;;;;;;;26.17;15.73;;;;;;;-3.09;100.00;99837.09;5092469;28;20070;-84
2022/11/21 03:49:59;;;;;;;21.45;13.93;;;;;;;-3.11;100.00;99840.44;5072751;28;20048;-87
2022/11/21 03:52:25;;;;;;;24.90;13.25;;;;;;;-3.13;100.00;99845.47;5072544;28;20051;-84
2022/11/21 03:54:52;;;;;;;19.77;12.60;;;;;;;-3.14;100.00;99846.31;5108141;28;20110;-83
2022/11/21 03:57:19;;;;;;;20.95;13.05;;;;;;;-3.16;100.00;99856.47;5087670;28;20044;-83
2022/11/21 03:59:45;;;;;;;27.58;13.95;;;;;;;-3.15;100.00;99849.69;5087098;28;20040;-83
2022/11/21 04:02:12;;;;;;;22.30;13.52;;;;;;;-3.18;100.00;99845.34;5091717;28;20464;-85
2022/11/21 04:04:39;;;;;;;23.88;13.50;;;;;;;-3.20;100.00;99844.41;5091538;28;20036;-83
2022/11/21 04:07:05;;;;;;;23.85;13.32;;;;;;;-3.17;100.00;99847.09;5092350;28;20048;-83
2022/11/21 04:09:32;;;;;;;26.55;14.63;;;;;;;-3.22;100.00;99840.94;5108580;28;20482;-85
2022/11/21 04:11:59;;;;;;;28.00;15.50;;;;;;;-3.24;100.00;99852.81;5091197;28;20118;-84
2022/11/21 04:14:25;;;;;;;25.30;14.25;;;;;;;-3.25;100.00;99847.63;5106183;28;20086;-83
2022/11/21 04:16:52;;;;;;;26.25;16.17;;;;;;;-3.28;100.00;99847.53;5102962;28;20119;-83
2022/11/21 04:19:18;;;;;;;23.10;14.05;;;;;;;-3.29;100.00;99848.34;5096373;28;20127;-84
2022/11/21 04:21:46;;;;;;;28.50;15.15;;;;;;;-3.28;100.00;99860.34;5099730;28;20130;-84
2022/11/21 04:24:13;;;;;;;26.30;14.68;;;;;;;-3.30;100.00;99859.41;5118560;28;20052;-86
2022/11/21 04:26:40;;;;;;;26.70;13.98;;;;;;;-3.32;100.00;99860.22;5103776;28;20054;-82
2022/11/21 04:29:06;;;;;;;26.27;13.38;;;;;;;-3.34;100.00;99861.88;5114356;28;20028;-86
2022/11/21 04:31:33;;;;;;;22.25;13.63;;;;;;;-3.36;100.00;99866.06;5112890;28;20044;-83
2022/11/21 04:33:59;;;;;;;25.75;13.50;;;;;;;-3.34;100.00;99860.97;5089869;28;20064;-85
2022/11/21 04:36:28;;;;;;;21.45;13.05;;;;;;;-3.38;100.00;99861.69;5111007;28;20063;-84
2022/11/21 04:38:56;;;;;;;18.88;11.98;;;;;;;-3.39;100.00;99852.28;5129011;28;20028;-84
2022/11/21 04:41:24;;;;;;;20.75;11.75;;;;;;;-3.42;100.00;99857.28;5105556;28;20079;-83
2022/11/21 04:43:51;;;;;;;21.50;12.18;;;;;;;-3.47;100.00;99854.56;5071474;28;20580;-81
2022/11/21 04:46:18;;;;;;;22.17;14.38;;;;;;;-3.50;100.00;99850.22;5102011;28;20044;-82
2022/11/21 04:48:46;;;;;;;17.15;12.00;;;;;;;-3.50;100.00;99854.47;5115644;28;20031;-81
2022/11/21 04:51:13;;;;;;;24.48;15.50;;;;;;;-3.56;100.00;99850.03;5118609;28;20039;-84
2022/11/21 04:53:40;;;;;;;25.13;14.07;;;;;;;-3.52;100.00;99848.41;5117511;28;20116;-83
2022/11/21 04:56:06;;;;;;;25.77;14.02;;;;;;;-3.45;100.00;99855.50;5093950;28;20076;-83
2022/11/21 04:58:33;;;;;;;25.55;13.63;;;;;;;-3.44;100.00;99857.25;5076413;28;20082;-83
2022/11/21 05:01:06;;;;;;;22.50;13.75;;;;;;;-3.47;100.00;99856.25;5093835;28;20044;-82
2022/11/21 05:03:33;;;;;;;26.95;14.05;;;;;;;-3.44;100.00;99862.38;5112260;28;20044;-85
2022/11/21 05:06:00;;;;;;;23.75;14.38;;;;;;;-3.48;100.00;99855.41;5090444;28;20044;-83
2022/11/21 05:08:26;;;;;;;24.20;14.48;;;;;;;-3.49;100.00;99856.22;5094822;28;20044;-83
2022/11/21 05:13:39;;;;;;;26.10;14.68;;;;;;;-3.50;100.00;99865.56;5098805;28;20480;-86
2022/11/21 05:16:05;;;;;;;19.88;12.15;;;;;;;-3.52;100.00;99859.53;5115375;28;20064;-86
2022/11/21 05:18:32;;;;;;;24.95;13.35;;;;;;;-3.53;100.00;99867.16;5096662;28;20103;-85
2022/11/21 05:21:01;;;;;;;26.77;14.85;;;;;;;-3.56;100.00;99859.38;5101718;28;20047;-87
2022/11/21 05:23:28;;;;;;;20.33;13.20;;;;;;;-3.59;100.00;99861.81;5089905;28;20359;-87
2022/11/21 05:25:55;;;;;;;24.13;14.57;;;;;;;-3.62;100.00;99859.13;5091673;28;20773;-88
2022/11/21 05:28:22;;;;;;;27.92;15.45;;;;;;;-3.63;100.00;99863.41;5087360;28;20049;-84
2022/11/21 05:30:48;;;;;;;25.90;14.02;;;;;;;-3.66;100.00;99865.88;5106301;28;20036;-88
2022/11/21 05:33:15;;;;;;;21.58;13.93;;;;;;;-3.68;100.00;99862.38;5102384;28;20040;-86
2022/11/21 05:35:42;;;;;;;27.70;14.82;;;;;;;-3.70;100.00;99857.19;5102404;28;20494;-85
2022/11/21 05:38:09;;;;;;;27.88;16.08;;;;;;;-3.70;100.00;99862.31;5094128;28;20111;-85
2022/11/21 05:40:37;;;;;;;24.25;13.80;;;;;;;-3.69;100.00;99869.19;5109031;28;20112;-84
2022/11/21 05:45:51;;;;;;;23.02;13.15;;;;;;;-3.64;100.00;99863.34;5106634;28;20052;-82
2022/11/21 05:48:18;;;;;;;30.75;14.63;;;;;;;-3.59;100.00;99860.13;5085345;28;20044;-83
2022/11/21 05:50:49;;;;;;;26.10;14.00;;;;;;;-3.50;100.00;99857.03;5093440;28;20124;-83
2022/11/21 05:53:16;;;;;;;23.05;14.05;;;;;;;-3.51;100.00;99855.28;5101018;28;20062;-88
2022/11/21 05:55:44;;;;;;;23.65;13.15;;;;;;;-3.52;100.00;99856.97;5129098;27;20028;-85
2022/11/21 05:58:17;;;;;;;20.45;12.88;;;;;;;-3.51;100.00;99863.84;5081367;28;20052;-84
2022/11/21 06:00:45;;;;;;;19.65;10.98;;;;;;;-3.46;100.00;99855.47;5109872;28;20044;-83
2022/11/21 06:03:27;;;;;;;31.10;14.00;;;;;;;-3.47;100.00;99859.69;5091950;28;20529;-83
2022/11/21 06:06:14;;;;;;;27.45;14.90;;;;;;;-3.51;100.00;99863.84;5077681;28;20056;-83
2022/11/21 06:08:47;;;;;;;25.25;13.90;;;;;;;-3.54;100.00;99866.28;5088867;28;20122;-82
2022/11/21 06:11:18;;;;;;;23.65;13.88;;;;;;;-3.55;100.00;99861.97;5079427;28;20467;-84
2022/11/21 06:13:45;;;;;;;28.40;14.65;;;;;;;-3.57;100.00;99867.84;5108633;28;20058;-84
2022/11/21 06:16:15;;;;;;;27.33;13.98;;;;;;;-3.57;100.00;99867.84;5108637;28;20397;-81
2022/11/21 06:18:49;;;;;;;23.95;13.23;;;;;;;-3.48;100.00;99865.66;5073685;28;20150;-82
2022/11/21 06:21:19;;;;;;;22.90;11.75;;;;;;;-3.40;100.00;99866.78;5091216;28;20482;-85
2022/11/21 06:23:47;;;;;;;24.73;12.55;;;;;;;-3.31;100.00;99866.22;5087802;28;20048;-82
2022/11/21 06:26:18;;;;;;;27.30;13.80;;;;;;;-3.29;100.00;99864.56;5080195;28;20046;-82
2022/11/21 06:28:46;;;;;;;21.70;14.18;;;;;;;-3.29;100.00;99866.28;5082537;28;20052;-82
2022/11/21 06:31:19;;;;;;;27.35;15.40;;;;;;;-3.28;100.00;99870.56;5090615;28;20040;-84
2022/11/21 06:33:46;;;;;;;24.77;14.55;;;;;;;-3.27;100.00;99875.75;5102918;28;20040;-83
2022/11/21 06:36:16;;;;;;;23.98;14.25;;;;;;;-3.24;100.00;99880.97;5072380;28;20136;-89
2022/11/21 06:38:44;;;;;;;26.52;13.93;;;;;;;-3.21;100.00;99872.50;5092773;28;20094;-84
2022/11/21 06:41:21;;;;;;;80.32;19.90;;;;;;;-3.19;100.00;99874.31;5091497;28;20389;-84
2022/11/21 06:43:49;;;;;;;77.10;19.48;;;;;;;-3.26;100.00;99881.72;5084574;28;20062;-84
2022/11/21 06:46:16;;;;;;;25.75;12.48;;;;;;;-3.32;100.00;99880.69;5106629;28;20080;-83
2022/11/21 06:48:43;;;;;;;43.72;15.90;;;;;;;-3.36;100.00;99888.22;5093277;28;20040;-85
2022/11/21 06:51:23;;;;;;;36.05;15.52;;;;;;;-3.45;100.00;99888.78;5108255;28;20036;-82
2022/11/21 06:53:58;;;;;;;28.63;14.52;;;;;;;-3.48;100.00;99886.13;5087955;28;20094;-89
2022/11/21 06:56:27;;;;;;;30.30;14.52;;;;;;;-3.46;100.00;99883.59;5077368;28;20055;-83
2022/11/21 06:58:54;;;;;;;46.90;15.93;;;;;;;-3.49;100.00;99881.81;5079881;28;20044;-85
2022/11/21 07:01:21;;;;;;;46.67;19.65;;;;;;;-3.56;100.00;99882.38;5091728;28;20097;-86
2022/11/21 07:03:49;;;;;;;41.72;17.15;;;;;;;-3.61;100.00;99892.47;5091768;28;20114;-84
2022/11/21 07:06:15;;;;;;;45.30;17.77;;;;;;;-3.61;100.00;99881.34;5084312;28;20044;-85
2022/11/21 07:08:42;;;;;;;41.75;17.55;;;;;;;-3.62;100.00;99884.72;5075692;28;20043;-84
2022/11/21 07:11:13;;;;;;;42.15;18.73;;;;;;;-3.57;100.00;99896.88;5091635;28;20090;-86
2022/11/21 07:13:39;;;;;;;37.03;16.58;;;;;;;-3.53;100.00;99897.88;5090657;28;20039;-84
2022/11/21 07:16:13;;;;;;;44.35;17.50;;;;;;;-3.55;100.00;99899.50;5091199;28;20063;-84
2022/11/21 07:18:51;;;;;;;;;;;;;;;-3.64;100.00;99906.84;5075522;28;20094;-83
2022/11/21 07:21:18;;;;;;;29.15;15.07;;;;;;;-3.70;100.00;99900.69;5122133;27;19958;-87
2022/11/21 07:23:44;;;;;;;30.73;14.20;;;;;;;-3.70;100.00;99907.50;5106076;28;20055;-84
2022/11/21 07:26:11;;;;;;;30.13;15.77;;;;;;;-3.70;100.00;99903.25;5076591;28;20074;-84
2022/11/21 07:28:38;;;;;;;29.40;15.27;;;;;;;-3.59;100.00;99913.00;5108421;28;20432;-84
2022/11/21 07:31:05;;;;;;;29.63;15.10;;;;;;;-3.60;100.00;99914.66;5087981;28;20032;-85
2022/11/21 07:33:31;;;;;;;27.88;15.80;;;;;;;-3.63;100.00;99911.16;5091845;28;20048;-85
2022/11/21 07:35:59;;;;;;;25.75;14.57;;;;;;;-3.66;100.00;99909.34;5092204;28;20043;-84
2022/11/21 07:38:27;;;;;;;24.52;13.20;;;;;;;-3.71;100.00;99898.94;5091480;28;20044;-82
2022/11/21 07:40:56;;;;;;;18.25;12.50;;;;;;;-3.72;100.00;99909.97;5107173;28;20051;-82
2022/11/21 07:43:22;;;;;;;22.45;13.55;;;;;;;-3.75;100.00;99906.47;5091839;28;20050;-85
2022/11/21 07:45:49;;;;;;;20.98;11.35;;;;;;;-3.80;100.00;99901.16;5076366;28;20050;-85
2022/11/21 07:48:16;;;;;;;21.33;12.57;;;;;;;-3.80;100.00;99902.84;5091723;28;20048;-82
2022/11/21 07:50:45;;;;;;;19.50;12.05;;;;;;;-3.75;100.00;99901.34;5082777;28;20490;-86
2022/11/21 07:53:12;;;;;;;21.02;13.82;;;;;;;-3.69;100.00;99896.44;5093567;28;20398;-84
2022/11/21 07:55:39;;;;;;;25.13;14.18;;;;;;;-3.61;100.00;99891.59;5096230;28;20032;-84
2022/11/21 07:58:14;;;;;;;25.40;13.63;;;;;;;-3.56;100.00;99896.06;5096652;28;20036;-83
2022/11/21 08:00:42;;;;;;;22.08;13.65;;;;;;;-3.47;100.00;99897.22;5090529;28;20051;-84
2022/11/21 08:03:11;;;;;;;25.92;12.70;;;;;;;-3.42;100.00;99900.81;5102942;28;20036;-86
2022/11/21 08:05:39;;;;;;;22.27;13.27;;;;;;;-3.39;100.00;99900.91;5075226;28;20040;-87
2022/11/21 08:08:07;;;;;;;18.98;11.48;;;;;;;-3.37;100.00;99904.41;5082991;28;20070;-84
2022/11/21 08:10:43;;;;;;;22.50;14.45;;;;;;;-3.34;100.00;99904.50;5090244;28;20413;-84
2022/11/21 08:13:11;;;;;;;31.88;16.17;;;;;;;-3.38;100.00;99906.06;5109556;28;20094;-84
2022/11/21 08:15:38;;;;;;;33.28;16.17;;;;;;;-3.39;100.00;99914.59;5082143;28;20153;-84
2022/11/21 08:18:17;;;;;;;34.63;17.25;;;;;;;-3.37;100.00;99907.81;5103414;28;20056;-86
2022/11/21 08:20:44;;;;;;;28.40;15.85;;;;;;;-3.37;100.00;99907.81;5129149;28;20032;-84
2022/11/21 08:23:16;;;;;;;30.10;16.40;;;;;;;-3.39;100.00;99906.91;5095919;28;20036;-84
2022/11/21 08:25:44;;;;;;;32.35;16.40;;;;;;;-3.41;100.00;99905.97;5110963;28;20044;-84
2022/11/21 08:28:12;;;;;;;29.83;16.67;;;;;;;-3.38;100.00;99907.75;5085081;28;20447;-87
2022/11/21 08:30:39;;;;;;;32.08;16.70;;;;;;;-3.36;100.00;99903.59;5079225;28;20044;-85
2022/11/21 08:33:06;;;;;;;33.67;17.40;;;;;;;-3.34;100.00;99907.94;5091733;28;20048;-85
2022/11/21 08:35:36;;;;;;;27.42;17.35;;;;;;;-3.29;100.00;99913.19;5114635;28;20044;-85
2022/11/21 08:38:05;;;;;;;37.35;17.38;;;;;;;-3.23;100.00;99910.88;5085865;28;20097;-87
2022/11/21 08:40:32;;;;;;;32.20;17.33;;;;;;;-3.17;100.00;99903.41;5075936;28;20120;-89
2022/11/21 08:43:06;;;;;;;34.10;18.42;;;;;;;-3.09;100.00;99907.91;5088687;28;20117;-83
2022/11/21 08:45:34;;;;;;;30.67;15.75;;;;;;;-3.03;100.00;99903.00;5089719;28;20376;-84
2022/11/21 08:48:01;;;;;;;28.35;14.68;;;;;;;-3.00;100.00;99906.53;5095430;28;20060;-87
2022/11/21 08:50:28;;;;;;;30.27;16.67;;;;;;;-2.96;100.00;99904.91;5072372;28;20044;-84
2022/11/21 08:53:02;;;;;;;31.75;16.85;;;;;;;-2.88;100.00;99905.19;5077727;28;20043;-85
2022/11/21 08:55:29;;;;;;;31.83;17.20;;;;;;;-2.85;100.00;99903.59;5077258;28;20091;-87
2022/11/21 08:57:56;;;;;;;29.50;14.93;;;;;;;-2.76;100.00;99904.75;5112524;28;20036;-84
2022/11/21 09:00:23;;;;;;;29.13;14.75;;;;;;;-2.72;100.00;99902.31;5103173;28;20079;-84
2022/11/21 09:02:50;;;;;;;28.65;14.95;;;;;;;-2.64;100.00;99900.00;5100477;28;20040;-84
2022/11/21 09:05:16;;;;;;;27.00;14.77;;;;;;;-2.57;100.00;99907.06;5106197;28;20040;-89
2022/11/21 09:07:43;;;;;;;26.15;14.23;;;;;;;-2.56;100.00;99905.38;5098797;28;20047;-82
2022/11/21 09:10:11;;;;;;;29.75;16.23;;;;;;;-2.53;100.00;99906.34;5119904;28;20066;-84
2022/11/21 09:12:38;;;;;;;30.35;13.07;;;;;;;-2.48;100.00;99901.34;5074330;28;20036;-83
2022/11/21 09:18:03;;;;;;;31.20;14.93;;;;;;;-2.34;100.00;99910.34;5104162;28;20043;-84
2022/11/21 09:20:39;;;;;;;25.67;12.48;;;;;;;-2.25;100.00;99907.19;5084060;28;20047;-83
2022/11/21 09:23:07;;;;;;;24.85;12.25;;;;;;;-2.19;100.00;99903.94;5076726;28;20469;-85
2022/11/21 09:25:34;;;;;;;21.00;12.43;;;;;;;-2.17;100.00;99902.31;5097449;28;20496;-84
2022/11/21 09:28:02;;;;;;;21.77;11.20;;;;;;;-2.09;100.00;99882.03;5073099;28;20044;-84
2022/11/21 09:30:30;;;;;;;18.83;11.10;;;;;;;-2.02;100.00;99889.06;5063327;28;20040;-85
2022/11/21 09:33:05;;;;;;;17.92;9.90;;;;;;;-1.97;100.00;99884.09;5097342;28;20127;-84
2022/11/21 09:35:34;;;;;;;20.63;10.93;;;;;;;-1.93;100.00;99889.34;5088554;28;20505;-85
2022/11/21 09:38:01;;;;;;;16.25;10.77;;;;;;;-1.89;100.00;99886.06;5081081;28;20045;-85
2022/11/21 09:40:36;;;;;;;29.38;13.48;;;;;;;-1.80;100.00;99887.13;5097117;28;20104;-84
2022/11/21 09:43:39;;;;;;;15.88;9.68;;;;;;;-1.77;100.00;99892.34;5091752;28;20052;-84
2022/11/21 09:46:16;;;;;;;19.00;9.80;;;;;;;-1.72;100.00;99889.09;5091514;28;20040;-84
2022/11/21 09:49:07;;;;;;;19.05;11.05;;;;;;;-1.64;100.00;99888.44;5086638;28;20066;-84
2022/11/21 09:51:38;;;;;;;32.92;12.02;;;;;;;-1.60;100.00;99893.69;5096991;28;20052;-84
2022/11/21 09:54:12;;;;;;;26.17;11.30;;;;;;;-1.55;100.00;99891.25;5094783;28;20046;-85
2022/11/21 09:56:42;;;;;;;16.23;9.20;;;;;;;-1.50;100.00;99884.53;5095491;28;20032;-84
2022/11/21 09:59:25;;;;;;;21.95;10.20;;;;;;;-1.46;100.00;99886.41;5094935;28;20041;-84
2022/11/21 10:01:51;;;;;;;17.05;9.52;;;;;;;-1.41;100.00;99891.63;5094134;28;20206;-84
2022/11/21 10:04:20;;;;;;;23.23;11.48;;;;;;;-1.38;100.00;99884.91;5098271;28;20447;-82
2022/11/21 10:07:03;;;;;;;20.17;10.25;;;;;;;-1.32;100.00;99881.59;5085703;28;20048;-87
2022/11/21 10:09:38;;;;;;;23.73;12.43;;;;;;;-1.27;100.00;99877.47;5092151;28;20467;-85
2022/11/21 10:12:36;;;;;;;17.35;9.23;;;;;;;-1.24;100.00;99880.13;5083759;28;20139;-85
2022/11/21 10:15:27;;;;;;;20.80;10.88;;;;;;;-1.19;100.00;99868.28;5083621;28;20044;-85
2022/11/21 10:18:37;;;;;;;21.15;11.93;;;;;;;-1.13;100.00;99872.69;5114886;27;20041;-87
2022/11/21 10:21:19;;;;;;;19.92;11.23;;;;;;;-1.11;100.00;99883.88;5107838;28;20051;-86
2022/11/21 10:24:16;;;;;;;16.50;10.27;;;;;;;-1.07;100.00;99879.69;5093264;28;20127;-84
2022/11/21 10:27:02;;;;;;;19.73;11.52;;;;;;;-1.02;100.00;99878.09;5084828;28;20044;-87
2022/11/21 10:29:36;;;;;;;18.35;10.65;;;;;;;-0.98;100.00;99879.06;5097120;28;20047;-84
2022/11/21 10:32:30;;;;;;;23.67;11.35;;;;;;;-0.95;100.00;99872.31;5070132;28;20277;-84
2022/11/21 10:35:32;;;;;;;21.45;11.75;;;;;;;-0.90;100.00;99874.97;5097915;28;20052;-89
2022/11/21 10:38:13;;;;;;;20.33;11.30;;;;;;;-0.87;100.00;99870.78;5087438;28;20052;-83
2022/11/21 10:40:53;;;;;;;18.52;11.48;;;;;;;-0.86;100.00;99871.63;5091315;28;20039;-86
2022/11/21 10:46:07;;;;;;;20.80;11.68;;;;;;;-0.82;100.00;99863.19;5125938;28;20398;-85
2022/11/21 10:48:34;;;;;;;22.42;12.05;;;;;;;-0.79;100.00;99867.53;5121754;28;20120;-82
2022/11/21 10:51:12;;;;;;;21.33;11.35;;;;;;;-0.78;100.00;99869.25;5101485;28;20117;-83
2022/11/21 10:56:26;;;;;;;18.20;10.65;;;;;;;-0.72;100.00;99849.75;5105760;28;20070;-84
2022/11/21 10:58:58;;;;;;;17.20;11.60;;;;;;;-0.67;100.00;99844.69;5107329;28;20036;-84
2022/11/21 11:01:35;;;;;;;19.58;10.48;;;;;;;-0.64;100.00;99838.75;5104059;28;20083;-85
2022/11/21 11:04:09;;;;;;;19.10;11.15;;;;;;;-0.64;100.00;99846.47;5112495;28;20073;-84
2022/11/21 11:06:42;;;;;;;20.05;9.93;;;;;;;-0.63;100.00;99846.50;5094064;28;20409;-85
2022/11/21 11:09:32;;;;;;;19.50;11.50;;;;;;;-0.60;100.00;99843.13;5107042;28;20113;-85
2022/11/21 11:15:19;;;;;;;18.80;10.48;;;;;;;-0.64;100.00;99829.34;5094428;28;20048;-84
2022/11/21 11:17:58;;;;;;;16.65;10.85;;;;;;;-0.63;100.00;99823.34;5093530;28;20069;-84
2022/11/21 11:20:40;;;;;;;19.55;11.13;;;;;;;-0.60;100.00;99817.41;5081667;28;20125;-85
2022/11/21 11:23:21;;;;;;;38.38;14.45;;;;;;;-0.61;100.00;99815.69;5059022;28;20040;-84
2022/11/21 11:25:59;;;;;;;20.13;10.10;;;;;;;-0.62;100.00;99811.41;5054912;28;20044;-83
2022/11/21 11:28:34;;;;;;;18.58;10.00;;;;;;;-0.62;100.00;99809.69;5055528;28;20115;-83
2022/11/21 11:31:01;;;;;;;16.13;9.60;;;;;;;-0.61;100.00;99806.28;5040638;28;20044;-85
2022/11/21 11:33:50;;;;;;;28.98;12.15;;;;;;;-0.60;100.00;99807.13;5073307;28;20106;-82
2022/11/21 11:36:39;;;;;;;14.80;9.10;;;;;;;-0.59;100.00;99798.59;5082946;28;20104;-82
2022/11/21 11:39:19;;;;;;;14.88;8.70;;;;;;;-0.57;100.00;99795.22;5038936;28;20048;-84
2022/11/21 11:48:01;;;;;;;14.52;8.25;;;;;;;-0.58;100.00;99779.78;5077164;28;20028;-84
2022/11/21 11:50:34;;;;;;;15.95;8.27;;;;;;;-0.60;100.00;99777.19;5051283;28;20043;-84
2022/11/21 11:53:20;;;;;;;17.83;8.83;;;;;;;-0.58;100.00;99772.06;5056865;28;20481;-83